sensor_id;sensor_type;location;lat;lon;timestamp;P1;durP1;ratioP1;P2;durP2;ratioP2
68923;SDS011;55961;52.156;20.942;2023-06-10T00:01:58;11.82;;;9.32;;
68923;SDS011;55961;52.156;20.942;2023-06-10T00:04:25;13.93;;;8.53;;
68923;SDS011;55961;52.156;20.942;2023-06-10T00:06:52;10.90;;;8.32;;
68923;SDS011;55961;52.156;20.942;2023-06-10T00:09:19;11.73;;;7.93;;
68923;SDS011;55961;52.156;20.942;2023-06-10T00:11:46;10.30;;;7.65;;
68923;SDS011;55961;52.156;20.942;2023-06-10T00:14:13;10.93;;;8.10;;
68923;SDS011;55961;52.156;20.942;2023-06-10T00:16:39;12.50;;;8.53;;
68923;SDS011;55961;52.156;20.942;2023-06-10T00:19:05;13.48;;;8.05;;
68923;SDS011;55961;52.156;20.942;2023-06-10T00:21:32;12.55;;;8.30;;
68923;SDS011;55961;52.156;20.942;2023-06-10T00:24:06;11.50;;;8.10;;
68923;SDS011;55961;52.156;20.942;2023-06-10T00:26:40;12.90;;;9.02;;
68923;SDS011;55961;52.156;20.942;2023-06-10T00:29:06;12.37;;;9.33;;
68923;SDS011;55961;52.156;20.942;2023-06-10T00:31:37;12.52;;;9.57;;
68923;SDS011;55961;52.156;20.942;2023-06-10T00:34:03;12.38;;;9.98;;
68923;SDS011;55961;52.156;20.942;2023-06-10T00:36:29;12.13;;;8.07;;
68923;SDS011;55961;52.156;20.942;2023-06-10T00:38:55;12.48;;;8.10;;
68923;SDS011;55961;52.156;20.942;2023-06-10T00:41:22;12.10;;;7.80;;
68923;SDS011;55961;52.156;20.942;2023-06-10T00:43:48;9.05;;;7.25;;
68923;SDS011;55961;52.156;20.942;2023-06-10T00:46:14;9.77;;;6.78;;
68923;SDS011;55961;52.156;20.942;2023-06-10T00:48:42;10.43;;;6.60;;
68923;SDS011;55961;52.156;20.942;2023-06-10T00:51:09;10.02;;;7.00;;
68923;SDS011;55961;52.156;20.942;2023-06-10T00:53:36;9.80;;;6.40;;
68923;SDS011;55961;52.156;20.942;2023-06-10T00:56:05;9.57;;;6.30;;
68923;SDS011;55961;52.156;20.942;2023-06-10T00:58:31;9.82;;;5.88;;
68923;SDS011;55961;52.156;20.942;2023-06-10T01:00:58;10.32;;;6.10;;
68923;SDS011;55961;52.156;20.942;2023-06-10T01:03:24;10.27;;;6.50;;
68923;SDS011;55961;52.156;20.942;2023-06-10T01:06:00;10.77;;;6.07;;
68923;SDS011;55961;52.156;20.942;2023-06-10T01:08:56;10.35;;;6.10;;
68923;SDS011;55961;52.156;20.942;2023-06-10T01:11:29;12.15;;;5.72;;
68923;SDS011;55961;52.156;20.942;2023-06-10T01:14:17;8.98;;;5.82;;
68923;SDS011;55961;52.156;20.942;2023-06-10T01:16:44;9.15;;;6.03;;
68923;SDS011;55961;52.156;20.942;2023-06-10T01:19:13;9.77;;;5.37;;
68923;SDS011;55961;52.156;20.942;2023-06-10T01:21:43;11.35;;;5.82;;
68923;SDS011;55961;52.156;20.942;2023-06-10T01:24:16;9.15;;;5.40;;
68923;SDS011;55961;52.156;20.942;2023-06-10T01:26:45;10.95;;;5.57;;
68923;SDS011;55961;52.156;20.942;2023-06-10T01:29:18;8.65;;;5.47;;
68923;SDS011;55961;52.156;20.942;2023-06-10T01:34:29;11.00;;;6.18;;
68923;SDS011;55961;52.156;20.942;2023-06-10T01:36:58;10.15;;;5.90;;
68923;SDS011;55961;52.156;20.942;2023-06-10T01:39:24;9.65;;;5.07;;
68923;SDS011;55961;52.156;20.942;2023-06-10T01:41:51;9.88;;;5.30;;
68923;SDS011;55961;52.156;20.942;2023-06-10T01:44:21;7.53;;;5.13;;
68923;SDS011;55961;52.156;20.942;2023-06-10T01:46:48;7.68;;;4.40;;
68923;SDS011;55961;52.156;20.942;2023-06-10T01:49:14;10.48;;;4.68;;
68923;SDS011;55961;52.156;20.942;2023-06-10T01:51:40;13.77;;;5.03;;
68923;SDS011;55961;52.156;20.942;2023-06-10T01:54:06;8.23;;;4.23;;
68923;SDS011;55961;52.156;20.942;2023-06-10T01:56:32;10.32;;;4.72;;
68923;SDS011;55961;52.156;20.942;2023-06-10T01:58:58;11.95;;;4.97;;
68923;SDS011;55961;52.156;20.942;2023-06-10T02:01:25;9.45;;;4.90;;
68923;SDS011;55961;52.156;20.942;2023-06-10T02:03:51;7.43;;;4.00;;
68923;SDS011;55961;52.156;20.942;2023-06-10T02:06:17;11.38;;;4.80;;
68923;SDS011;55961;52.156;20.942;2023-06-10T02:08:43;12.60;;;4.38;;
68923;SDS011;55961;52.156;20.942;2023-06-10T02:11:09;9.95;;;4.60;;
68923;SDS011;55961;52.156;20.942;2023-06-10T02:13:35;11.60;;;4.50;;
68923;SDS011;55961;52.156;20.942;2023-06-10T02:16:01;8.73;;;4.20;;
68923;SDS011;55961;52.156;20.942;2023-06-10T02:18:27;10.15;;;4.28;;
68923;SDS011;55961;52.156;20.942;2023-06-10T02:20:53;7.03;;;4.43;;
68923;SDS011;55961;52.156;20.942;2023-06-10T02:23:19;8.77;;;4.28;;
68923;SDS011;55961;52.156;20.942;2023-06-10T02:25:45;9.55;;;4.38;;
68923;SDS011;55961;52.156;20.942;2023-06-10T02:28:13;11.10;;;4.63;;
68923;SDS011;55961;52.156;20.942;2023-06-10T02:30:40;10.27;;;4.32;;
68923;SDS011;55961;52.156;20.942;2023-06-10T02:33:07;10.37;;;4.83;;
68923;SDS011;55961;52.156;20.942;2023-06-10T02:35:36;8.02;;;4.28;;
68923;SDS011;55961;52.156;20.942;2023-06-10T02:38:03;9.75;;;4.18;;
68923;SDS011;55961;52.156;20.942;2023-06-10T02:40:29;11.20;;;4.68;;
68923;SDS011;55961;52.156;20.942;2023-06-10T02:42:55;8.68;;;4.38;;
68923;SDS011;55961;52.156;20.942;2023-06-10T02:45:21;9.30;;;4.20;;
68923;SDS011;55961;52.156;20.942;2023-06-10T02:47:47;8.27;;;4.28;;
68923;SDS011;55961;52.156;20.942;2023-06-10T02:50:13;9.35;;;4.25;;
68923;SDS011;55961;52.156;20.942;2023-06-10T02:52:39;12.52;;;4.45;;
68923;SDS011;55961;52.156;20.942;2023-06-10T02:55:05;9.37;;;4.80;;
68923;SDS011;55961;52.156;20.942;2023-06-10T02:57:31;8.60;;;4.10;;
68923;SDS011;55961;52.156;20.942;2023-06-10T02:59:57;11.77;;;4.40;;
68923;SDS011;55961;52.156;20.942;2023-06-10T03:02:23;9.18;;;4.43;;
68923;SDS011;55961;52.156;20.942;2023-06-10T03:04:57;8.60;;;4.00;;
68923;SDS011;55961;52.156;20.942;2023-06-10T03:07:23;10.40;;;4.03;;
68923;SDS011;55961;52.156;20.942;2023-06-10T03:09:49;10.48;;;5.05;;
68923;SDS011;55961;52.156;20.942;2023-06-10T03:12:15;13.52;;;4.60;;
68923;SDS011;55961;52.156;20.942;2023-06-10T03:14:41;10.57;;;4.53;;
68923;SDS011;55961;52.156;20.942;2023-06-10T03:17:07;9.60;;;4.23;;
68923;SDS011;55961;52.156;20.942;2023-06-10T03:19:36;9.32;;;4.20;;
68923;SDS011;55961;52.156;20.942;2023-06-10T03:22:08;8.35;;;4.07;;
68923;SDS011;55961;52.156;20.942;2023-06-10T03:24:35;11.82;;;3.90;;
68923;SDS011;55961;52.156;20.942;2023-06-10T03:27:01;13.50;;;4.37;;
68923;SDS011;55961;52.156;20.942;2023-06-10T03:29:30;13.25;;;4.50;;
68923;SDS011;55961;52.156;20.942;2023-06-10T03:31:56;10.20;;;4.45;;
68923;SDS011;55961;52.156;20.942;2023-06-10T03:34:22;8.63;;;4.25;;
68923;SDS011;55961;52.156;20.942;2023-06-10T03:36:48;8.05;;;3.65;;
68923;SDS011;55961;52.156;20.942;2023-06-10T03:39:15;9.73;;;4.40;;
68923;SDS011;55961;52.156;20.942;2023-06-10T03:41:41;8.90;;;4.35;;
68923;SDS011;55961;52.156;20.942;2023-06-10T03:44:07;8.57;;;3.80;;
68923;SDS011;55961;52.156;20.942;2023-06-10T03:46:32;9.17;;;3.83;;
68923;SDS011;55961;52.156;20.942;2023-06-10T03:48:58;7.30;;;3.83;;
68923;SDS011;55961;52.156;20.942;2023-06-10T03:51:26;14.88;;;4.07;;
68923;SDS011;55961;52.156;20.942;2023-06-10T03:53:52;7.45;;;4.07;;
68923;SDS011;55961;52.156;20.942;2023-06-10T03:56:18;9.30;;;4.00;;
68923;SDS011;55961;52.156;20.942;2023-06-10T03:58:44;10.30;;;4.40;;
68923;SDS011;55961;52.156;20.942;2023-06-10T04:01:10;8.63;;;3.33;;
68923;SDS011;55961;52.156;20.942;2023-06-10T04:03:38;9.40;;;3.70;;
68923;SDS011;55961;52.156;20.942;2023-06-10T04:06:08;7.82;;;3.90;;
68923;SDS011;55961;52.156;20.942;2023-06-10T04:08:35;6.47;;;3.90;;
68923;SDS011;55961;52.156;20.942;2023-06-10T04:11:01;10.23;;;4.18;;
68923;SDS011;55961;52.156;20.942;2023-06-10T04:13:27;8.98;;;4.10;;
68923;SDS011;55961;52.156;20.942;2023-06-10T04:15:53;9.07;;;3.88;;
68923;SDS011;55961;52.156;20.942;2023-06-10T04:18:22;11.97;;;3.70;;
68923;SDS011;55961;52.156;20.942;2023-06-10T04:20:48;9.98;;;4.32;;
68923;SDS011;55961;52.156;20.942;2023-06-10T04:23:14;8.90;;;4.15;;
68923;SDS011;55961;52.156;20.942;2023-06-10T04:25:40;11.57;;;3.90;;
68923;SDS011;55961;52.156;20.942;2023-06-10T04:28:06;9.53;;;3.63;;
68923;SDS011;55961;52.156;20.942;2023-06-10T04:30:31;10.38;;;4.25;;
68923;SDS011;55961;52.156;20.942;2023-06-10T04:32:58;7.47;;;3.92;;
68923;SDS011;55961;52.156;20.942;2023-06-10T04:35:25;10.77;;;3.92;;
68923;SDS011;55961;52.156;20.942;2023-06-10T04:37:53;7.77;;;3.83;;
68923;SDS011;55961;52.156;20.942;2023-06-10T04:40:19;6.80;;;3.67;;
68923;SDS011;55961;52.156;20.942;2023-06-10T04:42:45;12.93;;;4.28;;
68923;SDS011;55961;52.156;20.942;2023-06-10T04:45:11;8.90;;;4.17;;
68923;SDS011;55961;52.156;20.942;2023-06-10T04:47:37;9.87;;;3.67;;
68923;SDS011;55961;52.156;20.942;2023-06-10T04:50:03;11.23;;;3.90;;
68923;SDS011;55961;52.156;20.942;2023-06-10T04:52:29;10.38;;;4.65;;
68923;SDS011;55961;52.156;20.942;2023-06-10T04:54:57;11.93;;;4.60;;
68923;SDS011;55961;52.156;20.942;2023-06-10T04:57:23;11.15;;;4.55;;
68923;SDS011;55961;52.156;20.942;2023-06-10T04:59:49;10.30;;;4.95;;
68923;SDS011;55961;52.156;20.942;2023-06-10T05:02:15;7.53;;;3.85;;
68923;SDS011;55961;52.156;20.942;2023-06-10T05:04:41;8.47;;;4.37;;
68923;SDS011;55961;52.156;20.942;2023-06-10T05:07:07;10.40;;;4.30;;
68923;SDS011;55961;52.156;20.942;2023-06-10T05:09:33;16.05;;;4.63;;
68923;SDS011;55961;52.156;20.942;2023-06-10T05:11:59;18.87;;;4.93;;
68923;SDS011;55961;52.156;20.942;2023-06-10T05:14:25;9.10;;;4.13;;
68923;SDS011;55961;52.156;20.942;2023-06-10T05:16:51;9.45;;;4.10;;
68923;SDS011;55961;52.156;20.942;2023-06-10T05:19:17;8.10;;;4.10;;
68923;SDS011;55961;52.156;20.942;2023-06-10T05:21:44;9.10;;;4.50;;
68923;SDS011;55961;52.156;20.942;2023-06-10T05:24:10;12.13;;;4.10;;
68923;SDS011;55961;52.156;20.942;2023-06-10T05:26:36;11.50;;;4.00;;
68923;SDS011;55961;52.156;20.942;2023-06-10T05:29:03;11.82;;;4.63;;
68923;SDS011;55961;52.156;20.942;2023-06-10T05:31:30;11.57;;;3.93;;
68923;SDS011;55961;52.156;20.942;2023-06-10T05:33:56;9.85;;;4.50;;
68923;SDS011;55961;52.156;20.942;2023-06-10T05:36:22;8.40;;;3.92;;
68923;SDS011;55961;52.156;20.942;2023-06-10T05:38:50;10.05;;;3.85;;
68923;SDS011;55961;52.156;20.942;2023-06-10T05:41:16;8.70;;;4.32;;
68923;SDS011;55961;52.156;20.942;2023-06-10T05:43:42;7.87;;;4.33;;
68923;SDS011;55961;52.156;20.942;2023-06-10T05:46:08;9.05;;;4.25;;
68923;SDS011;55961;52.156;20.942;2023-06-10T05:48:34;12.20;;;4.90;;
68923;SDS011;55961;52.156;20.942;2023-06-10T05:51:00;8.87;;;4.40;;
68923;SDS011;55961;52.156;20.942;2023-06-10T05:53:26;12.25;;;4.55;;
68923;SDS011;55961;52.156;20.942;2023-06-10T05:55:52;9.88;;;4.40;;
68923;SDS011;55961;52.156;20.942;2023-06-10T05:58:22;8.38;;;3.90;;
68923;SDS011;55961;52.156;20.942;2023-06-10T06:00:49;12.35;;;4.88;;
68923;SDS011;55961;52.156;20.942;2023-06-10T06:03:15;11.90;;;4.20;;
68923;SDS011;55961;52.156;20.942;2023-06-10T06:05:42;10.00;;;4.57;;
68923;SDS011;55961;52.156;20.942;2023-06-10T06:08:09;10.35;;;4.10;;
68923;SDS011;55961;52.156;20.942;2023-06-10T06:10:35;7.65;;;3.95;;
68923;SDS011;55961;52.156;20.942;2023-06-10T06:13:01;10.87;;;4.60;;
68923;SDS011;55961;52.156;20.942;2023-06-10T06:15:28;11.43;;;4.90;;
68923;SDS011;55961;52.156;20.942;2023-06-10T06:17:53;10.60;;;4.32;;
68923;SDS011;55961;52.156;20.942;2023-06-10T06:20:21;9.80;;;4.57;;
68923;SDS011;55961;52.156;20.942;2023-06-10T06:22:48;10.77;;;4.60;;
68923;SDS011;55961;52.156;20.942;2023-06-10T06:25:14;8.30;;;4.55;;
68923;SDS011;55961;52.156;20.942;2023-06-10T06:27:40;11.18;;;4.82;;
68923;SDS011;55961;52.156;20.942;2023-06-10T06:30:07;12.05;;;4.50;;
68923;SDS011;55961;52.156;20.942;2023-06-10T06:32:33;7.88;;;4.40;;
68923;SDS011;55961;52.156;20.942;2023-06-10T06:34:59;10.10;;;4.70;;
68923;SDS011;55961;52.156;20.942;2023-06-10T06:37:25;9.95;;;4.60;;
68923;SDS011;55961;52.156;20.942;2023-06-10T06:39:51;12.18;;;4.85;;
68923;SDS011;55961;52.156;20.942;2023-06-10T06:42:18;8.77;;;4.75;;
68923;SDS011;55961;52.156;20.942;2023-06-10T06:44:45;8.47;;;4.63;;
68923;SDS011;55961;52.156;20.942;2023-06-10T06:47:12;8.05;;;5.15;;
68923;SDS011;55961;52.156;20.942;2023-06-10T06:49:38;8.38;;;4.68;;
68923;SDS011;55961;52.156;20.942;2023-06-10T06:52:04;9.00;;;5.10;;
68923;SDS011;55961;52.156;20.942;2023-06-10T06:54:31;11.37;;;5.03;;
68923;SDS011;55961;52.156;20.942;2023-06-10T06:57:00;10.50;;;5.30;;
68923;SDS011;55961;52.156;20.942;2023-06-10T06:59:26;8.98;;;4.80;;
68923;SDS011;55961;52.156;20.942;2023-06-10T07:01:52;8.07;;;4.95;;
68923;SDS011;55961;52.156;20.942;2023-06-10T07:04:19;15.37;;;5.27;;
68923;SDS011;55961;52.156;20.942;2023-06-10T07:06:47;10.80;;;4.60;;
68923;SDS011;55961;52.156;20.942;2023-06-10T07:09:13;9.15;;;5.13;;
68923;SDS011;55961;52.156;20.942;2023-06-10T07:11:39;9.02;;;5.03;;
68923;SDS011;55961;52.156;20.942;2023-06-10T07:14:06;9.67;;;4.80;;
68923;SDS011;55961;52.156;20.942;2023-06-10T07:16:32;9.98;;;4.95;;
68923;SDS011;55961;52.156;20.942;2023-06-10T07:18:58;10.43;;;5.03;;
68923;SDS011;55961;52.156;20.942;2023-06-10T07:21:24;11.23;;;5.65;;
68923;SDS011;55961;52.156;20.942;2023-06-10T07:23:50;15.07;;;6.37;;
68923;SDS011;55961;52.156;20.942;2023-06-10T07:26:18;8.07;;;4.95;;
68923;SDS011;55961;52.156;20.942;2023-06-10T07:28:44;12.27;;;5.20;;
68923;SDS011;55961;52.156;20.942;2023-06-10T07:31:10;9.60;;;4.43;;
68923;SDS011;55961;52.156;20.942;2023-06-10T07:33:37;11.80;;;5.70;;
68923;SDS011;55961;52.156;20.942;2023-06-10T07:36:06;8.52;;;4.93;;
68923;SDS011;55961;52.156;20.942;2023-06-10T07:38:33;8.50;;;5.07;;
68923;SDS011;55961;52.156;20.942;2023-06-10T07:40:59;12.23;;;5.50;;
68923;SDS011;55961;52.156;20.942;2023-06-10T07:43:25;10.18;;;5.03;;
68923;SDS011;55961;52.156;20.942;2023-06-10T07:45:51;10.63;;;4.93;;
68923;SDS011;55961;52.156;20.942;2023-06-10T07:48:17;9.60;;;5.20;;
68923;SDS011;55961;52.156;20.942;2023-06-10T07:50:43;10.05;;;5.10;;
68923;SDS011;55961;52.156;20.942;2023-06-10T07:53:10;9.20;;;5.07;;
68923;SDS011;55961;52.156;20.942;2023-06-10T07:55:35;13.80;;;5.20;;
68923;SDS011;55961;52.156;20.942;2023-06-10T07:58:01;7.70;;;5.00;;
68923;SDS011;55961;52.156;20.942;2023-06-10T08:00:27;10.13;;;4.93;;
68923;SDS011;55961;52.156;20.942;2023-06-10T08:02:53;10.77;;;4.85;;
68923;SDS011;55961;52.156;20.942;2023-06-10T08:05:19;8.63;;;4.90;;
68923;SDS011;55961;52.156;20.942;2023-06-10T08:07:46;11.80;;;5.38;;
68923;SDS011;55961;52.156;20.942;2023-06-10T08:10:12;10.13;;;5.07;;
68923;SDS011;55961;52.156;20.942;2023-06-10T08:12:38;8.83;;;5.17;;
68923;SDS011;55961;52.156;20.942;2023-06-10T08:15:04;9.93;;;4.45;;
68923;SDS011;55961;52.156;20.942;2023-06-10T08:17:30;8.35;;;4.82;;
68923;SDS011;55961;52.156;20.942;2023-06-10T08:19:56;10.00;;;5.45;;
68923;SDS011;55961;52.156;20.942;2023-06-10T08:22:22;10.20;;;4.85;;
68923;SDS011;55961;52.156;20.942;2023-06-10T08:24:48;7.63;;;4.30;;
68923;SDS011;55961;52.156;20.942;2023-06-10T08:27:14;10.30;;;4.68;;
68923;SDS011;55961;52.156;20.942;2023-06-10T08:29:40;7.47;;;4.73;;
68923;SDS011;55961;52.156;20.942;2023-06-10T08:32:06;12.43;;;4.93;;
68923;SDS011;55961;52.156;20.942;2023-06-10T08:34:35;8.57;;;4.70;;
68923;SDS011;55961;52.156;20.942;2023-06-10T08:37:02;10.40;;;4.72;;
68923;SDS011;55961;52.156;20.942;2023-06-10T08:39:29;12.63;;;4.70;;
68923;SDS011;55961;52.156;20.942;2023-06-10T08:44:46;9.23;;;4.82;;
68923;SDS011;55961;52.156;20.942;2023-06-10T08:47:13;9.43;;;4.80;;
68923;SDS011;55961;52.156;20.942;2023-06-10T08:49:44;9.68;;;5.10;;
68923;SDS011;55961;52.156;20.942;2023-06-10T08:52:15;11.52;;;5.53;;
68923;SDS011;55961;52.156;20.942;2023-06-10T08:54:56;9.00;;;4.70;;
68923;SDS011;55961;52.156;20.942;2023-06-10T08:57:28;13.40;;;4.55;;
68923;SDS011;55961;52.156;20.942;2023-06-10T08:59:56;9.00;;;4.72;;
68923;SDS011;55961;52.156;20.942;2023-06-10T09:02:25;7.68;;;4.20;;
68923;SDS011;55961;52.156;20.942;2023-06-10T09:04:52;7.75;;;4.22;;
68923;SDS011;55961;52.156;20.942;2023-06-10T09:07:21;8.90;;;4.13;;
68923;SDS011;55961;52.156;20.942;2023-06-10T09:09:48;6.93;;;4.43;;
68923;SDS011;55961;52.156;20.942;2023-06-10T09:12:15;8.75;;;4.65;;
68923;SDS011;55961;52.156;20.942;2023-06-10T09:14:41;8.40;;;4.70;;
68923;SDS011;55961;52.156;20.942;2023-06-10T09:17:08;9.23;;;4.38;;
68923;SDS011;55961;52.156;20.942;2023-06-10T09:19:34;8.63;;;4.33;;
68923;SDS011;55961;52.156;20.942;2023-06-10T09:22:01;7.03;;;4.38;;
68923;SDS011;55961;52.156;20.942;2023-06-10T09:24:27;6.18;;;4.53;;
68923;SDS011;55961;52.156;20.942;2023-06-10T09:27:04;9.63;;;4.15;;
68923;SDS011;55961;52.156;20.942;2023-06-10T09:29:43;11.13;;;4.10;;
68923;SDS011;55961;52.156;20.942;2023-06-10T09:32:20;9.83;;;4.40;;
68923;SDS011;55961;52.156;20.942;2023-06-10T09:34:46;7.35;;;4.13;;
68923;SDS011;55961;52.156;20.942;2023-06-10T09:37:20;8.18;;;4.60;;
68923;SDS011;55961;52.156;20.942;2023-06-10T09:40:03;7.78;;;4.47;;
68923;SDS011;55961;52.156;20.942;2023-06-10T09:42:33;8.20;;;5.45;;
68923;SDS011;55961;52.156;20.942;2023-06-10T09:45:01;11.13;;;5.73;;
68923;SDS011;55961;52.156;20.942;2023-06-10T09:47:27;8.23;;;4.90;;
68923;SDS011;55961;52.156;20.942;2023-06-10T09:49:54;9.23;;;5.65;;
68923;SDS011;55961;52.156;20.942;2023-06-10T09:52:23;8.85;;;4.93;;
68923;SDS011;55961;52.156;20.942;2023-06-10T09:54:53;9.40;;;5.15;;
68923;SDS011;55961;52.156;20.942;2023-06-10T09:57:24;10.63;;;4.70;;
68923;SDS011;55961;52.156;20.942;2023-06-10T09:59:53;8.35;;;4.90;;
68923;SDS011;55961;52.156;20.942;2023-06-10T10:02:20;9.07;;;4.85;;
68923;SDS011;55961;52.156;20.942;2023-06-10T10:04:46;10.00;;;4.43;;
68923;SDS011;55961;52.156;20.942;2023-06-10T10:07:13;7.43;;;3.97;;
68923;SDS011;55961;52.156;20.942;2023-06-10T10:09:39;5.70;;;3.90;;
68923;SDS011;55961;52.156;20.942;2023-06-10T10:12:10;8.25;;;4.40;;
68923;SDS011;55961;52.156;20.942;2023-06-10T10:14:39;6.55;;;3.72;;
68923;SDS011;55961;52.156;20.942;2023-06-10T10:17:11;8.05;;;4.00;;
68923;SDS011;55961;52.156;20.942;2023-06-10T10:19:42;10.73;;;5.00;;
68923;SDS011;55961;52.156;20.942;2023-06-10T10:22:20;9.93;;;4.50;;
68923;SDS011;55961;52.156;20.942;2023-06-10T10:24:59;8.63;;;4.70;;
68923;SDS011;55961;52.156;20.942;2023-06-10T10:27:30;10.57;;;4.40;;
68923;SDS011;55961;52.156;20.942;2023-06-10T10:30:01;9.05;;;4.53;;
68923;SDS011;55961;52.156;20.942;2023-06-10T10:32:35;8.30;;;4.18;;
68923;SDS011;55961;52.156;20.942;2023-06-10T10:35:08;7.57;;;4.17;;
68923;SDS011;55961;52.156;20.942;2023-06-10T10:37:47;6.82;;;4.03;;
68923;SDS011;55961;52.156;20.942;2023-06-10T10:40:14;6.85;;;3.90;;
68923;SDS011;55961;52.156;20.942;2023-06-10T10:42:41;9.45;;;4.43;;
68923;SDS011;55961;52.156;20.942;2023-06-10T10:45:08;8.48;;;4.30;;
68923;SDS011;55961;52.156;20.942;2023-06-10T10:47:35;10.73;;;4.33;;
68923;SDS011;55961;52.156;20.942;2023-06-10T10:50:03;9.45;;;4.50;;
68923;SDS011;55961;52.156;20.942;2023-06-10T10:52:55;7.50;;;4.28;;
68923;SDS011;55961;52.156;20.942;2023-06-10T10:55:24;8.07;;;4.13;;
68923;SDS011;55961;52.156;20.942;2023-06-10T10:57:55;9.23;;;4.50;;
68923;SDS011;55961;52.156;20.942;2023-06-10T11:02:58;6.68;;;4.20;;
68923;SDS011;55961;52.156;20.942;2023-06-10T11:05:59;8.30;;;4.00;;
68923;SDS011;55961;52.156;20.942;2023-06-10T11:10:58;8.20;;;3.95;;
68923;SDS011;55961;52.156;20.942;2023-06-10T11:13:25;8.27;;;4.23;;
68923;SDS011;55961;52.156;20.942;2023-06-10T11:15:53;9.40;;;4.05;;
68923;SDS011;55961;52.156;20.942;2023-06-10T11:21:12;6.88;;;3.95;;
68923;SDS011;55961;52.156;20.942;2023-06-10T11:23:38;8.27;;;4.35;;
68923;SDS011;55961;52.156;20.942;2023-06-10T11:26:15;6.00;;;4.13;;
68923;SDS011;55961;52.156;20.942;2023-06-10T11:31:18;7.75;;;4.25;;
68923;SDS011;55961;52.156;20.942;2023-06-10T11:33:53;5.65;;;4.00;;
68923;SDS011;55961;52.156;20.942;2023-06-10T11:36:21;11.18;;;4.45;;
68923;SDS011;55961;52.156;20.942;2023-06-10T11:38:54;9.43;;;4.43;;
68923;SDS011;55961;52.156;20.942;2023-06-10T11:41:39;9.60;;;4.32;;
68923;SDS011;55961;52.156;20.942;2023-06-10T11:44:09;8.93;;;4.22;;
68923;SDS011;55961;52.156;20.942;2023-06-10T11:46:36;6.20;;;4.18;;
68923;SDS011;55961;52.156;20.942;2023-06-10T11:49:03;7.03;;;4.40;;
68923;SDS011;55961;52.156;20.942;2023-06-10T11:51:34;6.80;;;4.10;;
68923;SDS011;55961;52.156;20.942;2023-06-10T11:54:01;7.20;;;4.47;;
68923;SDS011;55961;52.156;20.942;2023-06-10T11:56:29;6.93;;;4.32;;
68923;SDS011;55961;52.156;20.942;2023-06-10T11:58:57;6.72;;;3.95;;
68923;SDS011;55961;52.156;20.942;2023-06-10T12:01:33;8.55;;;4.05;;
68923;SDS011;55961;52.156;20.942;2023-06-10T12:04:03;5.50;;;3.80;;
68923;SDS011;55961;52.156;20.942;2023-06-10T12:06:43;7.72;;;4.60;;
68923;SDS011;55961;52.156;20.942;2023-06-10T12:09:22;7.07;;;4.68;;
68923;SDS011;55961;52.156;20.942;2023-06-10T12:12:02;7.68;;;5.00;;
68923;SDS011;55961;52.156;20.942;2023-06-10T12:17:20;7.83;;;5.17;;
68923;SDS011;55961;52.156;20.942;2023-06-10T12:19:48;8.88;;;4.50;;
68923;SDS011;55961;52.156;20.942;2023-06-10T12:22:14;9.82;;;5.10;;
68923;SDS011;55961;52.156;20.942;2023-06-10T12:25:00;5.80;;;4.40;;
68923;SDS011;55961;52.156;20.942;2023-06-10T12:27:28;8.32;;;5.38;;
68923;SDS011;55961;52.156;20.942;2023-06-10T12:29:56;8.87;;;5.00;;
68923;SDS011;55961;52.156;20.942;2023-06-10T12:32:39;7.35;;;4.63;;
68923;SDS011;55961;52.156;20.942;2023-06-10T12:35:07;7.55;;;4.20;;
68923;SDS011;55961;52.156;20.942;2023-06-10T12:37:34;7.60;;;4.35;;
68923;SDS011;55961;52.156;20.942;2023-06-10T12:40:02;9.52;;;5.07;;
68923;SDS011;55961;52.156;20.942;2023-06-10T12:42:32;7.37;;;4.63;;
68923;SDS011;55961;52.156;20.942;2023-06-10T12:45:01;8.00;;;4.75;;
68923;SDS011;55961;52.156;20.942;2023-06-10T12:47:35;11.40;;;5.18;;
68923;SDS011;55961;52.156;20.942;2023-06-10T12:50:04;9.15;;;5.20;;
68923;SDS011;55961;52.156;20.942;2023-06-10T12:52:31;8.68;;;4.82;;
68923;SDS011;55961;52.156;20.942;2023-06-10T12:54:58;8.97;;;4.57;;
68923;SDS011;55961;52.156;20.942;2023-06-10T12:57:25;7.07;;;4.68;;
68923;SDS011;55961;52.156;20.942;2023-06-10T12:59:51;9.10;;;5.10;;
68923;SDS011;55961;52.156;20.942;2023-06-10T13:02:20;9.73;;;5.93;;
68923;SDS011;55961;52.156;20.942;2023-06-10T13:04:49;11.45;;;5.47;;
68923;SDS011;55961;52.156;20.942;2023-06-10T13:07:16;8.17;;;5.43;;
68923;SDS011;55961;52.156;20.942;2023-06-10T13:09:43;7.28;;;5.38;;
68923;SDS011;55961;52.156;20.942;2023-06-10T13:12:09;7.10;;;4.90;;
68923;SDS011;55961;52.156;20.942;2023-06-10T13:14:36;11.27;;;5.07;;
68923;SDS011;55961;52.156;20.942;2023-06-10T13:17:05;7.70;;;4.85;;
68923;SDS011;55961;52.156;20.942;2023-06-10T13:19:32;8.30;;;5.20;;
68923;SDS011;55961;52.156;20.942;2023-06-10T13:21:58;6.53;;;5.13;;
68923;SDS011;55961;52.156;20.942;2023-06-10T13:24:24;7.97;;;5.13;;
68923;SDS011;55961;52.156;20.942;2023-06-10T13:26:51;10.23;;;5.57;;
68923;SDS011;55961;52.156;20.942;2023-06-10T13:29:17;9.73;;;5.22;;
68923;SDS011;55961;52.156;20.942;2023-06-10T13:31:43;6.30;;;4.87;;
68923;SDS011;55961;52.156;20.942;2023-06-10T13:34:10;7.80;;;5.22;;
68923;SDS011;55961;52.156;20.942;2023-06-10T13:36:36;7.63;;;5.80;;
68923;SDS011;55961;52.156;20.942;2023-06-10T13:39:02;9.20;;;5.57;;
68923;SDS011;55961;52.156;20.942;2023-06-10T13:41:28;9.23;;;5.50;;
68923;SDS011;55961;52.156;20.942;2023-06-10T13:43:54;7.90;;;5.57;;
68923;SDS011;55961;52.156;20.942;2023-06-10T13:46:20;9.20;;;5.78;;
68923;SDS011;55961;52.156;20.942;2023-06-10T13:48:47;8.25;;;5.60;;
68923;SDS011;55961;52.156;20.942;2023-06-10T13:51:13;10.20;;;6.63;;
68923;SDS011;55961;52.156;20.942;2023-06-10T13:53:39;8.37;;;5.70;;
68923;SDS011;55961;52.156;20.942;2023-06-10T13:56:05;8.75;;;5.78;;
68923;SDS011;55961;52.156;20.942;2023-06-10T13:58:31;8.85;;;5.30;;
68923;SDS011;55961;52.156;20.942;2023-06-10T14:00:57;9.17;;;5.57;;
68923;SDS011;55961;52.156;20.942;2023-06-10T14:03:24;10.48;;;5.80;;
68923;SDS011;55961;52.156;20.942;2023-06-10T14:05:50;7.97;;;6.07;;
68923;SDS011;55961;52.156;20.942;2023-06-10T14:08:16;10.05;;;5.90;;
68923;SDS011;55961;52.156;20.942;2023-06-10T14:10:42;8.85;;;5.18;;
68923;SDS011;55961;52.156;20.942;2023-06-10T14:13:08;9.77;;;5.60;;
68923;SDS011;55961;52.156;20.942;2023-06-10T14:15:34;9.52;;;5.95;;
68923;SDS011;55961;52.156;20.942;2023-06-10T14:18:00;8.68;;;5.32;;
68923;SDS011;55961;52.156;20.942;2023-06-10T14:20:26;6.85;;;5.30;;
68923;SDS011;55961;52.156;20.942;2023-06-10T14:22:57;8.77;;;5.27;;
68923;SDS011;55961;52.156;20.942;2023-06-10T14:25:23;8.60;;;4.97;;
68923;SDS011;55961;52.156;20.942;2023-06-10T14:27:50;9.85;;;5.65;;
68923;SDS011;55961;52.156;20.942;2023-06-10T14:30:16;8.50;;;5.85;;
68923;SDS011;55961;52.156;20.942;2023-06-10T14:32:42;8.15;;;5.80;;
68923;SDS011;55961;52.156;20.942;2023-06-10T14:35:08;9.67;;;5.60;;
68923;SDS011;55961;52.156;20.942;2023-06-10T14:37:35;11.07;;;5.85;;
68923;SDS011;55961;52.156;20.942;2023-06-10T14:40:02;10.93;;;6.45;;
68923;SDS011;55961;52.156;20.942;2023-06-10T14:42:31;9.65;;;6.18;;
68923;SDS011;55961;52.156;20.942;2023-06-10T14:44:57;7.83;;;6.40;;
68923;SDS011;55961;52.156;20.942;2023-06-10T14:47:24;10.05;;;5.68;;
68923;SDS011;55961;52.156;20.942;2023-06-10T14:49:50;8.23;;;5.60;;
68923;SDS011;55961;52.156;20.942;2023-06-10T14:52:16;10.68;;;5.90;;
68923;SDS011;55961;52.156;20.942;2023-06-10T14:54:42;12.10;;;6.07;;